createdAt,value
2022-12-08T00:01:30.289Z,80.66
2022-12-08T00:03:59.369Z,80.43
2022-12-08T00:06:49.866Z,80.24
2022-12-08T00:09:46.459Z,80.62
2022-12-08T00:12:16.637Z,80.22
2022-12-08T00:14:46.660Z,80.65
2022-12-08T00:17:16.185Z,80.76
2022-12-08T00:19:46.240Z,81.37
2022-12-08T00:22:14.845Z,80.73
2022-12-08T00:24:44.908Z,81.07
2022-12-08T00:27:13.437Z,81.02
2022-12-08T00:29:40.857Z,81.28
2022-12-08T00:32:08.291Z,81.14
2022-12-08T00:34:35.853Z,80.75
2022-12-08T00:37:03.488Z,80.70
2022-12-08T00:39:31.201Z,80.60
2022-12-08T00:42:13.696Z,81.25
2022-12-08T00:44:42.159Z,80.82
2022-12-08T00:47:10.053Z,81.91
2022-12-08T00:49:37.361Z,81.68
2022-12-08T00:52:04.942Z,81.19
2022-12-08T00:54:32.269Z,81.32
2022-12-08T00:56:59.543Z,81.42
2022-12-08T00:59:26.826Z,81.09
2022-12-08T01:01:54.070Z,80.50
2022-12-08T01:04:21.820Z,80.81
2022-12-08T01:06:49.593Z,80.60
2022-12-08T01:09:17.895Z,81.11
2022-12-08T01:11:45.617Z,81.05
2022-12-08T01:14:19.707Z,80.57
2022-12-08T01:16:47.540Z,80.84
2022-12-08T01:19:16.019Z,80.70
2022-12-08T01:21:44.570Z,80.34
2022-12-08T01:24:14.256Z,80.73
2022-12-08T01:26:41.656Z,80.93
2022-12-08T01:29:09.429Z,81.21
2022-12-08T01:31:37.146Z,81.00
2022-12-08T01:34:05.172Z,81.24
2022-12-08T01:36:33.968Z,80.80
2022-12-08T01:39:02.301Z,80.57
2022-12-08T01:41:32.149Z,81.10
2022-12-08T01:44:02.473Z,81.07
2022-12-08T01:46:33.127Z,81.79
2022-12-08T01:49:11.469Z,81.42
2022-12-08T01:51:51.795Z,81.79
2022-12-08T01:54:19.842Z,82.03
2022-12-08T01:56:53.120Z,82.05
2022-12-08T01:59:20.488Z,83.51
2022-12-08T02:01:51.935Z,83.07
2022-12-08T02:04:19.328Z,83.29
2022-12-08T02:06:47.179Z,82.77
2022-12-08T02:09:14.645Z,82.56
2022-12-08T02:11:42.113Z,82.45
2022-12-08T02:14:10.641Z,82.22
2022-12-08T02:16:42.168Z,81.68
2022-12-08T02:19:49.704Z,81.50
2022-12-08T02:22:22.323Z,82.03
2022-12-08T02:25:07.396Z,81.64
2022-12-08T02:27:47.183Z,80.93
2022-12-08T02:30:38.485Z,80.87
2022-12-08T02:33:24.315Z,81.50
2022-12-08T02:36:05.288Z,83.13
2022-12-08T02:38:44.955Z,83.52
2022-12-08T02:41:26.460Z,83.44
2022-12-08T02:44:22.829Z,82.69
2022-12-08T02:46:56.396Z,82.29
2022-12-08T02:49:29.454Z,82.92
2022-12-08T02:52:07.163Z,83.59
2022-12-08T02:54:35.611Z,82.45
2022-12-08T02:57:12.884Z,81.90
2022-12-08T03:00:01.692Z,81.07
2022-12-08T03:02:35.512Z,80.85
2022-12-08T03:05:18.188Z,81.68
2022-12-08T03:08:03.910Z,83.15
2022-12-08T03:10:37.965Z,82.58
2022-12-08T03:13:13.162Z,82.15
2022-12-08T03:15:41.753Z,82.37
2022-12-08T03:18:11.301Z,81.46
2022-12-08T03:20:39.638Z,82.80
2022-12-08T03:23:09.831Z,83.02
2022-12-08T03:25:42.204Z,83.14
2022-12-08T03:28:09.832Z,83.15
2022-12-08T03:30:39.546Z,83.98
2022-12-08T03:33:16.293Z,83.72
2022-12-08T03:35:44.399Z,83.37
2022-12-08T03:38:14.405Z,82.74
2022-12-08T03:40:41.846Z,83.53
2022-12-08T03:43:09.383Z,82.69
2022-12-08T03:45:36.791Z,82.86
2022-12-08T03:48:04.103Z,83.17
2022-12-08T03:50:31.354Z,82.69
2022-12-08T03:52:58.635Z,82.91
2022-12-08T03:55:25.979Z,84.19
2022-12-08T03:57:53.260Z,84.95
2022-12-08T04:00:20.664Z,85.80
2022-12-08T04:02:48.003Z,85.37
2022-12-08T04:05:15.379Z,84.68
2022-12-08T04:07:43.628Z,84.35
2022-12-08T04:10:11.247Z,84.32
2022-12-08T04:12:38.570Z,83.97
2022-12-08T04:15:06.231Z,82.80
2022-12-08T04:17:33.483Z,83.32
2022-12-08T04:20:00.841Z,83.68
2022-12-08T04:22:28.267Z,83.23
2022-12-08T04:24:55.581Z,83.33
2022-12-08T04:27:22.808Z,82.61
2022-12-08T04:29:50.025Z,82.72
2022-12-08T04:32:17.257Z,83.46
2022-12-08T04:34:44.513Z,83.51
2022-12-08T04:37:11.705Z,84.07
2022-12-08T04:39:38.946Z,84.07
2022-12-08T04:42:06.204Z,83.40
2022-12-08T04:44:33.912Z,82.39
2022-12-08T04:47:01.216Z,81.78
2022-12-08T04:49:28.613Z,81.61
2022-12-08T04:51:55.874Z,81.40
2022-12-08T04:54:23.081Z,80.08
2022-12-08T04:56:50.348Z,80.08
2022-12-08T04:59:17.783Z,79.24
2022-12-08T05:01:45.430Z,80.15
2022-12-08T05:04:12.796Z,80.81
2022-12-08T05:06:40.058Z,80.69
2022-12-08T05:09:07.790Z,80.06
2022-12-08T05:11:34.982Z,80.41
2022-12-08T05:14:02.227Z,80.47
2022-12-08T05:16:29.611Z,80.60
2022-12-08T05:18:56.865Z,80.32
2022-12-08T05:21:24.166Z,79.32
2022-12-08T05:23:51.530Z,79.67
2022-12-08T05:26:18.779Z,78.88
2022-12-08T05:28:46.123Z,80.18
2022-12-08T05:31:15.063Z,80.43
2022-12-08T05:33:43.204Z,80.58
2022-12-08T05:36:12.650Z,81.37
2022-12-08T05:38:40.138Z,81.35
2022-12-08T05:41:07.875Z,81.31
2022-12-08T05:43:35.295Z,80.66
2022-12-08T05:46:02.692Z,79.77
2022-12-08T05:48:29.946Z,81.16
2022-12-08T05:50:57.346Z,83.08
2022-12-08T05:53:24.713Z,84.94
2022-12-08T05:55:51.944Z,85.39
2022-12-08T05:58:20.686Z,85.94
2022-12-08T06:00:49.324Z,85.62
2022-12-08T06:03:18.338Z,85.33
2022-12-08T06:05:46.815Z,86.05
2022-12-08T06:08:14.296Z,84.73
2022-12-08T06:10:43.845Z,84.79
2022-12-08T06:13:11.081Z,85.98
2022-12-08T06:15:38.848Z,86.87
2022-12-08T06:18:07.142Z,87.21
2022-12-08T06:20:34.437Z,86.63
2022-12-08T06:23:02.098Z,86.76
2022-12-08T06:25:29.404Z,87.05
2022-12-08T06:27:56.635Z,87.01
2022-12-08T06:30:23.930Z,87.28
2022-12-08T06:32:51.261Z,86.71
2022-12-08T06:35:18.486Z,87.31
2022-12-08T06:37:45.767Z,87.37
2022-12-08T06:40:13.368Z,86.59
2022-12-08T06:42:47.274Z,86.18
2022-12-08T06:45:16.345Z,85.69
2022-12-08T06:47:44.172Z,84.31
2022-12-08T06:50:12.728Z,84.31
2022-12-08T06:52:51.653Z,84.02
2022-12-08T06:55:50.843Z,83.14
2022-12-08T06:58:08.872Z,83.72
2022-12-08T07:00:36.137Z,83.13
2022-12-08T07:03:03.470Z,82.69
2022-12-08T07:05:30.723Z,82.41
2022-12-08T07:07:58.110Z,82.23
2022-12-08T07:10:25.375Z,81.89
2022-12-08T07:12:52.669Z,81.08
2022-12-08T07:15:20.429Z,80.59
2022-12-08T07:17:48.260Z,80.64
2022-12-08T07:20:15.877Z,80.66
2022-12-08T07:22:52.155Z,80.54
2022-12-08T07:25:19.987Z,80.72
2022-12-08T07:27:47.930Z,81.49
2022-12-08T07:30:15.235Z,80.96
2022-12-08T07:32:42.538Z,80.26
2022-12-08T07:35:10.320Z,80.01
2022-12-08T07:37:38.230Z,79.80
2022-12-08T07:40:07.822Z,79.05
2022-12-08T07:42:35.595Z,79.44
2022-12-08T07:45:02.943Z,79.41
2022-12-08T07:47:30.203Z,79.84
2022-12-08T07:49:57.556Z,79.80
2022-12-08T07:52:24.865Z,79.69
2022-12-08T07:54:52.137Z,78.93
2022-12-08T07:57:19.341Z,78.16
2022-12-08T07:59:46.689Z,77.94
2022-12-08T08:02:26.220Z,79.21
2022-12-08T08:04:54.358Z,78.83
2022-12-08T08:07:21.804Z,78.85
2022-12-08T08:09:49.490Z,79.00
2022-12-08T08:12:32.916Z,78.93
2022-12-08T08:15:01.662Z,79.16
2022-12-08T08:17:29.917Z,79.22
2022-12-08T08:19:57.455Z,79.07
2022-12-08T08:22:26.703Z,79.40
2022-12-08T08:24:54.377Z,79.02
2022-12-08T08:27:22.803Z,77.71
2022-12-08T08:29:50.221Z,78.40
2022-12-08T08:32:17.610Z,78.48
2022-12-08T08:34:44.913Z,78.22
2022-12-08T08:37:12.110Z,79.75
2022-12-08T08:39:39.435Z,79.82
2022-12-08T08:42:06.612Z,78.76
2022-12-08T08:44:33.894Z,78.12
2022-12-08T08:47:02.665Z,78.61
2022-12-08T08:49:29.869Z,78.77
2022-12-08T08:51:57.569Z,79.18
2022-12-08T08:54:24.772Z,79.27
2022-12-08T08:56:52.681Z,78.88
2022-12-08T08:59:19.937Z,79.46
2022-12-08T09:01:48.170Z,79.04
2022-12-08T09:04:15.879Z,77.58
2022-12-08T09:06:44.158Z,77.66
2022-12-08T09:09:12.157Z,77.35
2022-12-08T09:11:39.446Z,77.05
2022-12-08T09:14:07.355Z,77.15
2022-12-08T09:16:40.403Z,77.37
2022-12-08T09:19:09.442Z,76.75
2022-12-08T09:21:36.759Z,77.20
2022-12-08T09:24:04.186Z,76.86
2022-12-08T09:26:31.423Z,77.00
2022-12-08T09:28:58.727Z,77.29
2022-12-08T09:31:26.112Z,76.43
2022-12-08T09:33:53.796Z,75.99
2022-12-08T09:36:21.348Z,76.49
2022-12-08T09:38:50.247Z,76.15
2022-12-08T09:41:24.356Z,76.47
2022-12-08T09:43:51.668Z,76.10
2022-12-08T09:46:19.436Z,76.56
2022-12-08T09:48:55.671Z,76.72
2022-12-08T09:51:28.046Z,75.48
2022-12-08T09:54:19.352Z,74.95
2022-12-08T09:56:47.829Z,75.44
2022-12-08T09:59:24.500Z,75.67
2022-12-08T10:01:52.769Z,75.17
2022-12-08T10:04:26.301Z,75.31
2022-12-08T10:07:30.767Z,75.28
2022-12-08T10:10:27.530Z,74.21
2022-12-08T10:13:08.606Z,74.78
2022-12-08T10:16:01.001Z,74.76
2022-12-08T10:18:33.061Z,74.38
2022-12-08T10:21:13.701Z,74.03
2022-12-08T10:23:45.353Z,75.03
2022-12-08T10:26:15.441Z,74.85
2022-12-08T10:28:45.164Z,74.94
2022-12-08T10:31:21.988Z,74.61
2022-12-08T10:34:00.541Z,74.88
2022-12-08T10:36:51.877Z,73.57
2022-12-08T10:39:40.289Z,73.57
2022-12-08T10:42:22.150Z,72.86
2022-12-08T10:45:08.510Z,74.59
2022-12-08T10:47:38.267Z,74.65
2022-12-08T10:50:36.992Z,74.83
2022-12-08T10:53:07.314Z,75.07
2022-12-08T10:56:11.718Z,74.04
2022-12-08T10:58:40.978Z,74.43
2022-12-08T11:01:14.114Z,74.16
2022-12-08T11:03:47.640Z,73.70
2022-12-08T11:06:20.743Z,74.08
2022-12-08T11:09:03.377Z,74.10
2022-12-08T11:11:39.574Z,74.41
2022-12-08T11:14:08.317Z,74.50
2022-12-08T11:16:36.044Z,75.14
2022-12-08T11:19:06.692Z,73.45
2022-12-08T11:21:37.309Z,74.12
2022-12-08T11:24:21.972Z,74.10
2022-12-08T11:27:01.149Z,73.36
2022-12-08T11:29:29.356Z,73.22
2022-12-08T11:32:06.175Z,73.16
2022-12-08T11:34:39.589Z,72.56
2022-12-08T11:37:11.266Z,72.51
2022-12-08T11:39:43.979Z,72.10
2022-12-08T11:42:13.417Z,71.46
2022-12-08T11:44:57.920Z,71.27
2022-12-08T11:47:31.830Z,71.35
2022-12-08T11:50:25.718Z,73.03
2022-12-08T11:52:53.644Z,73.31
2022-12-08T11:55:48.145Z,73.18
2022-12-08T11:58:21.655Z,73.25
2022-12-08T12:00:49.715Z,72.98
2022-12-08T12:03:37.399Z,72.47
2022-12-08T12:06:37.608Z,72.51
2022-12-08T12:09:10.084Z,71.29
2022-12-08T12:12:13.810Z,71.93
2022-12-08T12:14:47.217Z,71.95
2022-12-08T12:17:42.257Z,72.57
2022-12-08T12:20:20.258Z,72.01
2022-12-08T12:22:51.466Z,71.84
2022-12-08T12:25:24.450Z,71.53
2022-12-08T12:27:57.909Z,71.53
2022-12-08T12:30:27.299Z,71.53
2022-12-08T12:32:57.654Z,71.09
2022-12-08T12:35:33.678Z,70.85
2022-12-08T12:38:48.860Z,70.76
2022-12-08T12:41:25.521Z,70.25
2022-12-08T12:44:29.531Z,71.13
2022-12-08T12:47:02.659Z,71.22
2022-12-08T12:49:38.956Z,70.65
2022-12-08T12:52:15.288Z,70.12
2022-12-08T12:55:11.370Z,70.79
2022-12-08T12:57:40.406Z,70.57
2022-12-08T13:00:24.575Z,71.19
2022-12-08T13:02:53.764Z,70.96
2022-12-08T13:05:23.438Z,71.32
2022-12-08T13:08:00.365Z,71.80
2022-12-08T13:10:30.781Z,71.49
2022-12-08T13:13:10.714Z,71.92
2022-12-08T13:15:39.298Z,71.86
2022-12-08T13:18:07.978Z,71.42
2022-12-08T13:20:42.832Z,71.86
2022-12-08T13:23:27.597Z,72.55
2022-12-08T13:26:24.942Z,71.54
2022-12-08T13:29:04.290Z,71.40
2022-12-08T13:31:34.998Z,70.95
2022-12-08T13:34:06.448Z,70.49
2022-12-08T13:36:38.052Z,70.37
2022-12-08T13:39:06.344Z,70.35
2022-12-08T13:41:53.996Z,70.01
2022-12-08T13:47:33.927Z,70.65
2022-12-08T13:58:50.154Z,70.59
2022-12-08T14:01:22.317Z,71.12
2022-12-08T14:04:22.040Z,70.91
2022-12-08T14:06:45.969Z,71.50
2022-12-08T14:09:16.550Z,71.58
2022-12-08T14:11:47.850Z,71.48
2022-12-08T14:14:45.820Z,71.25
2022-12-08T14:17:22.319Z,71.83
2022-12-08T14:20:12.921Z,72.36
2022-12-08T14:22:41.179Z,71.73
2022-12-08T14:25:14.436Z,71.34
2022-12-08T14:27:42.018Z,71.54
2022-12-08T14:30:13.368Z,71.53
2022-12-08T14:32:48.744Z,71.56
2022-12-08T14:35:20.888Z,71.55
2022-12-08T14:37:49.392Z,71.73
2022-12-08T14:40:22.993Z,72.08
2022-12-08T14:42:52.428Z,72.08
2022-12-08T14:45:20.097Z,72.28
2022-12-08T14:47:48.626Z,71.90
2022-12-08T14:50:39.572Z,70.72
2022-12-08T14:53:17.494Z,70.50
2022-12-08T14:55:46.493Z,70.79
2022-12-08T14:58:32.051Z,71.52
2022-12-08T15:01:00.226Z,71.33
2022-12-08T15:03:29.060Z,71.07
2022-12-08T15:05:58.547Z,70.65
2022-12-08T15:08:26.069Z,71.22
2022-12-08T15:11:21.685Z,71.21
2022-12-08T15:13:51.552Z,70.70
2022-12-08T15:16:38.695Z,70.13
2022-12-08T15:19:16.509Z,70.92
2022-12-08T15:21:45.243Z,71.33
2022-12-08T15:24:13.714Z,71.65
2022-12-08T15:26:46.858Z,70.91
2022-12-08T15:29:25.499Z,70.77
2022-12-08T15:31:55.631Z,70.57
2022-12-08T15:34:22.870Z,69.93
2022-12-08T15:36:51.456Z,69.80
2022-12-08T15:39:21.358Z,70.04
2022-12-08T15:41:48.647Z,69.59
2022-12-08T15:44:15.858Z,70.18
2022-12-08T15:46:43.143Z,70.38
2022-12-08T15:49:17.952Z,69.78
2022-12-08T15:51:45.516Z,69.98
2022-12-08T15:54:13.210Z,70.06
2022-12-08T15:57:18.051Z,70.04
2022-12-08T15:59:39.737Z,70.35
2022-12-08T16:02:08.858Z,70.21
2022-12-08T16:07:26.546Z,70.40
2022-12-08T16:09:54.573Z,69.98
2022-12-08T16:13:48.023Z,70.07
2022-12-08T16:15:51.767Z,70.28
2022-12-08T16:18:26.231Z,71.10
2022-12-08T16:23:44.270Z,71.17
2022-12-08T16:26:28.945Z,70.63
2022-12-08T16:29:05.681Z,69.82
2022-12-08T16:31:33.181Z,70.03
2022-12-08T16:34:00.697Z,69.86
2022-12-08T16:36:27.910Z,71.18
2022-12-08T16:38:55.166Z,72.73
2022-12-08T16:41:41.208Z,72.27
2022-12-08T16:44:08.522Z,73.49
2022-12-08T16:46:36.965Z,73.23
2022-12-08T16:49:04.847Z,72.57
2022-12-08T16:51:32.137Z,72.64
2022-12-08T16:53:59.551Z,72.92
2022-12-08T16:56:32.735Z,73.45
2022-12-08T16:59:01.840Z,72.50
2022-12-08T17:01:29.344Z,72.83
2022-12-08T17:04:29.141Z,74.30
2022-12-08T17:06:44.457Z,72.93
2022-12-08T17:09:11.931Z,73.31
2022-12-08T17:11:42.915Z,74.80
2022-12-08T17:14:12.781Z,74.24
2022-12-08T17:16:40.478Z,73.40
2022-12-08T17:19:07.830Z,73.79
2022-12-08T17:21:35.792Z,75.14
2022-12-08T17:24:03.226Z,74.89
2022-12-08T17:26:30.630Z,73.69
2022-12-08T17:29:00.998Z,73.70
2022-12-08T17:31:31.222Z,73.86
2022-12-08T17:34:00.795Z,73.34
2022-12-08T17:36:28.203Z,74.07
2022-12-08T17:38:56.427Z,73.66
2022-12-08T17:41:23.674Z,73.29
2022-12-08T17:43:51.009Z,73.72
2022-12-08T17:46:19.289Z,74.05
2022-12-08T17:48:46.887Z,73.71
2022-12-08T17:51:14.912Z,74.02
2022-12-08T17:53:42.300Z,74.42
2022-12-08T17:56:19.784Z,74.23
2022-12-08T17:58:51.329Z,76.31
2022-12-08T18:01:23.397Z,76.92
2022-12-08T18:03:51.084Z,77.24
2022-12-08T18:06:18.340Z,76.90
2022-12-08T18:08:45.636Z,77.33
2022-12-08T18:11:16.076Z,76.93
2022-12-08T18:13:43.441Z,77.12
2022-12-08T18:16:10.763Z,78.28
2022-12-08T18:18:38.099Z,78.13
2022-12-08T18:21:05.635Z,78.90
2022-12-08T18:23:33.293Z,79.71
2022-12-08T18:26:00.742Z,80.35
2022-12-08T18:28:28.071Z,80.33
2022-12-08T18:30:55.507Z,79.84
2022-12-08T18:33:22.914Z,80.11
2022-12-08T18:35:50.304Z,80.65
2022-12-08T18:38:17.508Z,80.65
2022-12-08T18:40:45.186Z,81.55
2022-12-08T18:43:12.505Z,82.25
2022-12-08T18:45:39.907Z,82.23
2022-12-08T18:48:09.081Z,82.65
2022-12-08T18:50:36.444Z,82.52
2022-12-08T18:53:03.771Z,81.60
2022-12-08T18:55:31.171Z,81.04
2022-12-08T18:57:58.476Z,80.18
2022-12-08T19:00:25.791Z,80.54
2022-12-08T19:02:53.288Z,80.43
2022-12-08T19:05:20.667Z,79.84
2022-12-08T19:07:48.102Z,78.87
2022-12-08T19:10:15.510Z,78.11
2022-12-08T19:12:42.945Z,78.81
2022-12-08T19:15:10.809Z,78.31
2022-12-08T19:17:38.080Z,77.54
2022-12-08T19:20:06.766Z,76.97
2022-12-08T19:22:34.364Z,76.39
2022-12-08T19:25:01.815Z,75.90
2022-12-08T19:27:29.715Z,75.55
2022-12-08T19:29:57.044Z,75.36
2022-12-08T19:32:24.609Z,75.87
2022-12-08T19:34:52.456Z,75.95
2022-12-08T19:37:19.796Z,74.57
2022-12-08T19:40:06.225Z,73.84
2022-12-08T19:42:52.284Z,73.44
2022-12-08T19:45:21.685Z,72.67
2022-12-08T19:47:49.285Z,72.53
2022-12-08T19:50:35.835Z,71.93
2022-12-08T19:53:08.977Z,71.66
2022-12-08T19:55:36.703Z,71.10
2022-12-08T19:58:04.767Z,70.99
2022-12-08T20:00:32.852Z,70.74
2022-12-08T20:03:02.092Z,70.91
2022-12-08T20:05:31.041Z,70.82
2022-12-08T20:07:58.503Z,70.60
2022-12-08T20:10:28.236Z,70.86
2022-12-08T20:13:16.187Z,71.35
2022-12-08T20:15:43.594Z,71.36
2022-12-08T20:18:12.218Z,70.96
2022-12-08T20:20:40.193Z,71.73
2022-12-08T20:23:07.712Z,71.98
2022-12-08T20:25:37.549Z,72.00
2022-12-08T20:28:04.971Z,72.36
2022-12-08T20:30:32.464Z,71.59
2022-12-08T20:32:59.882Z,71.59
2022-12-08T20:35:27.253Z,70.86
2022-12-08T20:37:54.518Z,71.12
2022-12-08T20:40:21.801Z,70.87
2022-12-08T20:42:49.288Z,70.63
2022-12-08T20:45:16.577Z,70.16
2022-12-08T20:47:44.044Z,70.39
2022-12-08T20:50:11.894Z,70.29
2022-12-08T20:52:39.590Z,70.20
2022-12-08T20:55:08.120Z,70.74
2022-12-08T20:57:35.544Z,70.40
2022-12-08T21:00:04.411Z,71.17
2022-12-08T21:02:32.338Z,70.66
2022-12-08T21:04:59.815Z,70.69
2022-12-08T21:07:27.231Z,70.21
2022-12-08T21:09:54.790Z,69.70
2022-12-08T21:12:22.184Z,69.86
2022-12-08T21:14:49.485Z,69.54
2022-12-08T21:17:16.993Z,70.23
2022-12-08T21:19:44.516Z,70.49
2022-12-08T21:22:12.593Z,70.17
2022-12-08T21:24:40.094Z,70.45
2022-12-08T21:27:07.507Z,70.49
2022-12-08T21:29:34.933Z,70.77
2022-12-08T21:32:02.259Z,70.79
2022-12-08T21:34:34.118Z,70.34
2022-12-08T21:37:02.468Z,70.29
2022-12-08T21:39:29.963Z,70.62
2022-12-08T21:42:20.390Z,70.04
2022-12-08T21:44:49.929Z,70.01
2022-12-08T21:47:17.343Z,70.00
2022-12-08T21:49:44.738Z,70.56
2022-12-08T21:52:12.005Z,70.14
2022-12-08T21:54:39.369Z,69.34
2022-12-08T21:57:06.818Z,69.58
2022-12-08T21:59:34.415Z,70.30
2022-12-08T22:02:02.198Z,70.07
2022-12-08T22:04:30.164Z,70.39
2022-12-08T22:06:57.711Z,69.75
2022-12-08T22:09:25.113Z,69.91
2022-12-08T22:11:52.451Z,69.42
2022-12-08T22:14:20.106Z,69.03
2022-12-08T22:16:47.544Z,69.31
2022-12-08T22:19:15.262Z,69.80
2022-12-08T22:21:43.228Z,71.64
2022-12-08T22:24:10.698Z,73.19
2022-12-08T22:26:38.180Z,72.89
2022-12-08T22:29:05.612Z,73.43
2022-12-08T22:31:33.051Z,73.82
2022-12-08T22:34:00.382Z,72.76
2022-12-08T22:36:28.182Z,72.10
2022-12-08T22:38:55.816Z,73.26
2022-12-08T22:41:23.847Z,72.69
2022-12-08T22:43:51.440Z,72.04
2022-12-08T22:46:21.730Z,73.15
2022-12-08T22:48:49.811Z,75.57
2022-12-08T22:51:18.169Z,74.90
2022-12-08T22:53:46.101Z,74.71
2022-12-08T22:56:14.678Z,74.49
2022-12-08T22:58:41.992Z,74.05
2022-12-08T23:01:14.764Z,74.31
2022-12-08T23:03:42.408Z,74.99
2022-12-08T23:06:13.145Z,75.49
2022-12-08T23:08:40.752Z,76.19
2022-12-08T23:11:08.193Z,76.19
2022-12-08T23:13:37.409Z,76.50
2022-12-08T23:16:05.639Z,76.79
2022-12-08T23:18:32.920Z,76.46
2022-12-08T23:21:06.571Z,76.17
2022-12-08T23:23:34.128Z,76.85
2022-12-08T23:26:01.679Z,76.26
2022-12-08T23:28:29.301Z,76.69
2022-12-08T23:30:56.795Z,76.84
2022-12-08T23:33:24.293Z,77.22
2022-12-08T23:35:59.130Z,78.43
2022-12-08T23:38:26.458Z,79.15
2022-12-08T23:40:54.227Z,79.87
2022-12-08T23:43:21.618Z,79.20
2022-12-08T23:45:49.030Z,79.70
2022-12-08T23:48:16.854Z,78.52
2022-12-08T23:50:44.304Z,78.27
2022-12-08T23:53:11.595Z,78.51
2022-12-08T23:55:39.582Z,78.56
2022-12-08T23:58:06.899Z,77.91
